Terminal Aerodrome Forecast
Issued by NWS

Home | Current Version | Previous Version | Graphics & Text | Print | Product List | Glossary Off
Versions: 1 2 3 4 5 6 7 8 9 10 11 12 13 14 15 16

096
FTUS43 KMPX 301723
TAFRWF
TAF
KRWF 301723Z 3018/0118 04012G20KT P6SM -RA SCT015 BKN030 OVC045
     FM302000 04014G26KT 6SM -RA BR OVC015
      TEMPO 3020/3024 2SM +RA BR OVC008
     FM010000 05016G27KT 5SM -SHRA BR SCT008 OVC012
     FM010600 02011G21KT 2SM -RASN BR OVC008
     FM011300 35012G21KT 2SM -RASN BR OVC008=

USA.gov is the U.S. government's official web portal to all federal, state and local government web resources and services.